Baie-Trinite, Canada
Current Conditions -  °F | °C
As of 1:00 PM on Thursday 27 Nov 2014 (Local Time) from CYBC Reporting Station
Few Clouds Few Clouds  
Wind Chill: 15°   Ceiling: Unl
Heat Index: 25°   Visibility: 9mi
Dew Point: 10°   Wind: 9mph
Humidity: 54%   Direction: 350°N
Pressure: 29.94"   Gusts: 17mph
Location:  49.43°N, 67.28°W
Report Text: CYBC 271800Z AUTO 35008G15KT 310V020 9SM FEW150 M04/M12 A2994 RMK SLP139
Loading
Personal Weather Stations






























Interactive Weather Map New forecast layout! Learn more

10-Day Weather Forecast

Advertisements
Track Severe Weather on mobile